sensor_id;sensor_type;location;lat;lon;timestamp;P1;durP1;ratioP1;P2;durP2;ratioP2
80536;SDS011;69867;47.074;15.404;2023-09-19T00:01:45;9.18;;;2.08;;
80536;SDS011;69867;47.074;15.404;2023-09-19T00:04:10;7.68;;;2.30;;
80536;SDS011;69867;47.074;15.404;2023-09-19T00:06:36;8.65;;;2.67;;
80536;SDS011;69867;47.074;15.404;2023-09-19T00:09:02;6.18;;;2.53;;
80536;SDS011;69867;47.074;15.404;2023-09-19T00:11:28;5.13;;;2.38;;
80536;SDS011;69867;47.074;15.404;2023-09-19T00:13:53;5.03;;;1.95;;
80536;SDS011;69867;47.074;15.404;2023-09-19T00:16:18;3.65;;;1.75;;
80536;SDS011;69867;47.074;15.404;2023-09-19T00:18:44;4.72;;;1.90;;
80536;SDS011;69867;47.074;15.404;2023-09-19T00:21:10;3.42;;;1.77;;
80536;SDS011;69867;47.074;15.404;2023-09-19T00:23:35;4.07;;;1.58;;
80536;SDS011;69867;47.074;15.404;2023-09-19T00:26:00;5.50;;;2.10;;
80536;SDS011;69867;47.074;15.404;2023-09-19T00:28:29;5.50;;;1.70;;
80536;SDS011;69867;47.074;15.404;2023-09-19T00:30:54;5.60;;;1.90;;
80536;SDS011;69867;47.074;15.404;2023-09-19T00:33:21;4.40;;;1.58;;
80536;SDS011;69867;47.074;15.404;2023-09-19T00:35:53;4.15;;;1.85;;
80536;SDS011;69867;47.074;15.404;2023-09-19T00:38:19;3.60;;;1.70;;
80536;SDS011;69867;47.074;15.404;2023-09-19T00:40:45;5.22;;;1.55;;
80536;SDS011;69867;47.074;15.404;2023-09-19T00:43:11;6.55;;;1.65;;
80536;SDS011;69867;47.074;15.404;2023-09-19T00:45:37;5.85;;;1.90;;
80536;SDS011;69867;47.074;15.404;2023-09-19T00:48:03;4.00;;;1.45;;
80536;SDS011;69867;47.074;15.404;2023-09-19T00:50:28;3.95;;;2.17;;
80536;SDS011;69867;47.074;15.404;2023-09-19T00:52:55;5.10;;;2.00;;
80536;SDS011;69867;47.074;15.404;2023-09-19T00:55:20;3.33;;;1.33;;
80536;SDS011;69867;47.074;15.404;2023-09-19T00:57:46;2.95;;;1.65;;
80536;SDS011;69867;47.074;15.404;2023-09-19T01:00:12;5.57;;;2.55;;
80536;SDS011;69867;47.074;15.404;2023-09-19T01:02:37;11.93;;;3.60;;
80536;SDS011;69867;47.074;15.404;2023-09-19T01:05:03;5.78;;;2.88;;
80536;SDS011;69867;47.074;15.404;2023-09-19T01:07:29;6.70;;;3.03;;
80536;SDS011;69867;47.074;15.404;2023-09-19T01:09:56;6.45;;;2.78;;
80536;SDS011;69867;47.074;15.404;2023-09-19T01:12:22;6.05;;;2.47;;
80536;SDS011;69867;47.074;15.404;2023-09-19T01:15:15;4.93;;;2.03;;
80536;SDS011;69867;47.074;15.404;2023-09-19T01:32:08;3.10;;;0.93;;
80536;SDS011;69867;47.074;15.404;2023-09-19T01:37:18;2.38;;;0.90;;
80536;SDS011;69867;47.074;15.404;2023-09-19T01:39:48;1.88;;;0.70;;
80536;SDS011;69867;47.074;15.404;2023-09-19T01:42:19;2.30;;;1.00;;
80536;SDS011;69867;47.074;15.404;2023-09-19T01:47:23;3.30;;;0.90;;
80536;SDS011;69867;47.074;15.404;2023-09-19T01:50:02;2.70;;;1.00;;
80536;SDS011;69867;47.074;15.404;2023-09-19T01:52:38;3.70;;;0.98;;
80536;SDS011;69867;47.074;15.404;2023-09-19T01:55:11;3.22;;;1.13;;
80536;SDS011;69867;47.074;15.404;2023-09-19T01:57:42;2.83;;;0.73;;
80536;SDS011;69867;47.074;15.404;2023-09-19T02:00:28;2.00;;;0.90;;
80536;SDS011;69867;47.074;15.404;2023-09-19T02:02:57;2.83;;;0.90;;
80536;SDS011;69867;47.074;15.404;2023-09-19T02:05:24;2.53;;;0.63;;
80536;SDS011;69867;47.074;15.404;2023-09-19T02:07:51;3.85;;;1.48;;
80536;SDS011;69867;47.074;15.404;2023-09-19T02:10:17;2.90;;;0.75;;
80536;SDS011;69867;47.074;15.404;2023-09-19T02:12:42;2.60;;;0.70;;
80536;SDS011;69867;47.074;15.404;2023-09-19T02:15:07;2.08;;;0.60;;
80536;SDS011;69867;47.074;15.404;2023-09-19T02:17:33;1.95;;;0.60;;
80536;SDS011;69867;47.074;15.404;2023-09-19T02:19:58;2.10;;;0.70;;
80536;SDS011;69867;47.074;15.404;2023-09-19T02:22:24;2.40;;;0.70;;
80536;SDS011;69867;47.074;15.404;2023-09-19T02:24:49;2.92;;;0.70;;
80536;SDS011;69867;47.074;15.404;2023-09-19T02:27:14;3.17;;;0.80;;
80536;SDS011;69867;47.074;15.404;2023-09-19T02:29:39;2.20;;;0.50;;
80536;SDS011;69867;47.074;15.404;2023-09-19T02:32:05;1.30;;;0.45;;
80536;SDS011;69867;47.074;15.404;2023-09-19T02:34:30;1.95;;;0.40;;
80536;SDS011;69867;47.074;15.404;2023-09-19T02:36:55;2.30;;;0.90;;
80536;SDS011;69867;47.074;15.404;2023-09-19T02:39:21;1.85;;;0.60;;
80536;SDS011;69867;47.074;15.404;2023-09-19T02:41:47;1.75;;;0.50;;
80536;SDS011;69867;47.074;15.404;2023-09-19T02:44:12;2.90;;;0.77;;
80536;SDS011;69867;47.074;15.404;2023-09-19T02:46:37;2.47;;;1.02;;
80536;SDS011;69867;47.074;15.404;2023-09-19T02:49:03;3.25;;;0.77;;
80536;SDS011;69867;47.074;15.404;2023-09-19T02:51:28;3.10;;;0.63;;
80536;SDS011;69867;47.074;15.404;2023-09-19T02:53:54;2.22;;;0.60;;
80536;SDS011;69867;47.074;15.404;2023-09-19T02:56:19;2.97;;;0.70;;
80536;SDS011;69867;47.074;15.404;2023-09-19T02:58:45;2.53;;;0.60;;
80536;SDS011;69867;47.074;15.404;2023-09-19T03:01:10;1.92;;;0.80;;
80536;SDS011;69867;47.074;15.404;2023-09-19T03:03:35;3.30;;;0.65;;
80536;SDS011;69867;47.074;15.404;2023-09-19T03:06:01;2.80;;;0.82;;
80536;SDS011;69867;47.074;15.404;2023-09-19T03:08:26;1.92;;;0.80;;
80536;SDS011;69867;47.074;15.404;2023-09-19T03:10:51;2.65;;;0.70;;
80536;SDS011;69867;47.074;15.404;2023-09-19T03:13:17;1.40;;;0.50;;
80536;SDS011;69867;47.074;15.404;2023-09-19T03:15:42;2.40;;;0.70;;
80536;SDS011;69867;47.074;15.404;2023-09-19T03:18:08;1.30;;;0.38;;
80536;SDS011;69867;47.074;15.404;2023-09-19T03:20:33;1.98;;;1.00;;
80536;SDS011;69867;47.074;15.404;2023-09-19T03:22:58;1.95;;;0.70;;
80536;SDS011;69867;47.074;15.404;2023-09-19T03:25:24;2.40;;;0.82;;
80536;SDS011;69867;47.074;15.404;2023-09-19T03:27:49;1.83;;;0.55;;
80536;SDS011;69867;47.074;15.404;2023-09-19T03:30:14;1.77;;;0.47;;
80536;SDS011;69867;47.074;15.404;2023-09-19T03:32:46;3.15;;;0.82;;
80536;SDS011;69867;47.074;15.404;2023-09-19T03:35:12;2.05;;;0.52;;
80536;SDS011;69867;47.074;15.404;2023-09-19T03:37:38;2.95;;;0.60;;
80536;SDS011;69867;47.074;15.404;2023-09-19T03:40:03;1.80;;;0.60;;
80536;SDS011;69867;47.074;15.404;2023-09-19T03:42:29;3.63;;;0.73;;
80536;SDS011;69867;47.074;15.404;2023-09-19T03:44:54;1.80;;;0.65;;
80536;SDS011;69867;47.074;15.404;2023-09-19T03:47:19;2.20;;;0.52;;
80536;SDS011;69867;47.074;15.404;2023-09-19T03:49:45;2.30;;;0.80;;
80536;SDS011;69867;47.074;15.404;2023-09-19T03:52:10;2.13;;;0.82;;
80536;SDS011;69867;47.074;15.404;2023-09-19T03:54:35;1.60;;;0.45;;
80536;SDS011;69867;47.074;15.404;2023-09-19T03:57:01;2.25;;;0.80;;
80536;SDS011;69867;47.074;15.404;2023-09-19T03:59:26;2.88;;;0.80;;
80536;SDS011;69867;47.074;15.404;2023-09-19T04:01:52;2.72;;;1.08;;
80536;SDS011;69867;47.074;15.404;2023-09-19T04:04:17;2.22;;;0.60;;
80536;SDS011;69867;47.074;15.404;2023-09-19T04:06:42;2.25;;;0.70;;
80536;SDS011;69867;47.074;15.404;2023-09-19T04:09:08;1.75;;;0.40;;
80536;SDS011;69867;47.074;15.404;2023-09-19T04:11:33;2.13;;;0.82;;
80536;SDS011;69867;47.074;15.404;2023-09-19T04:13:59;2.20;;;0.73;;
80536;SDS011;69867;47.074;15.404;2023-09-19T04:16:27;2.75;;;0.70;;
80536;SDS011;69867;47.074;15.404;2023-09-19T04:18:53;2.28;;;0.80;;
80536;SDS011;69867;47.074;15.404;2023-09-19T04:21:18;3.13;;;0.75;;
80536;SDS011;69867;47.074;15.404;2023-09-19T04:23:43;1.67;;;0.43;;
80536;SDS011;69867;47.074;15.404;2023-09-19T04:26:09;3.28;;;0.80;;
80536;SDS011;69867;47.074;15.404;2023-09-19T04:28:34;2.53;;;0.95;;
80536;SDS011;69867;47.074;15.404;2023-09-19T04:31:00;1.90;;;0.70;;
80536;SDS011;69867;47.074;15.404;2023-09-19T04:33:25;2.72;;;0.90;;
80536;SDS011;69867;47.074;15.404;2023-09-19T04:35:51;1.52;;;0.50;;
80536;SDS011;69867;47.074;15.404;2023-09-19T04:38:17;2.25;;;0.75;;
80536;SDS011;69867;47.074;15.404;2023-09-19T04:40:43;3.13;;;0.65;;
80536;SDS011;69867;47.074;15.404;2023-09-19T04:43:08;3.28;;;0.80;;
80536;SDS011;69867;47.074;15.404;2023-09-19T04:45:33;1.70;;;0.75;;
80536;SDS011;69867;47.074;15.404;2023-09-19T04:47:59;2.80;;;0.75;;
80536;SDS011;69867;47.074;15.404;2023-09-19T04:50:24;4.00;;;0.73;;
80536;SDS011;69867;47.074;15.404;2023-09-19T04:52:50;2.45;;;0.73;;
80536;SDS011;69867;47.074;15.404;2023-09-19T04:55:15;2.03;;;0.68;;
80536;SDS011;69867;47.074;15.404;2023-09-19T04:57:41;2.58;;;1.02;;
80536;SDS011;69867;47.074;15.404;2023-09-19T05:00:06;2.60;;;0.70;;
80536;SDS011;69867;47.074;15.404;2023-09-19T05:02:32;2.25;;;0.70;;
80536;SDS011;69867;47.074;15.404;2023-09-19T05:04:57;2.30;;;0.80;;
80536;SDS011;69867;47.074;15.404;2023-09-19T05:07:22;2.75;;;0.98;;
80536;SDS011;69867;47.074;15.404;2023-09-19T05:09:48;2.20;;;0.60;;
80536;SDS011;69867;47.074;15.404;2023-09-19T05:12:13;2.55;;;1.20;;
80536;SDS011;69867;47.074;15.404;2023-09-19T05:14:38;2.85;;;0.80;;
80536;SDS011;69867;47.074;15.404;2023-09-19T05:17:03;2.28;;;0.80;;
80536;SDS011;69867;47.074;15.404;2023-09-19T05:19:29;2.42;;;0.80;;
80536;SDS011;69867;47.074;15.404;2023-09-19T05:21:54;2.08;;;0.65;;
80536;SDS011;69867;47.074;15.404;2023-09-19T05:24:19;2.92;;;1.02;;
80536;SDS011;69867;47.074;15.404;2023-09-19T05:26:45;4.07;;;1.02;;
80536;SDS011;69867;47.074;15.404;2023-09-19T05:29:10;2.38;;;0.88;;
80536;SDS011;69867;47.074;15.404;2023-09-19T05:31:35;3.38;;;1.20;;
80536;SDS011;69867;47.074;15.404;2023-09-19T05:34:01;3.08;;;0.90;;
80536;SDS011;69867;47.074;15.404;2023-09-19T05:36:26;3.45;;;1.83;;
80536;SDS011;69867;47.074;15.404;2023-09-19T05:38:51;3.80;;;1.15;;
80536;SDS011;69867;47.074;15.404;2023-09-19T05:41:16;2.95;;;1.33;;
80536;SDS011;69867;47.074;15.404;2023-09-19T05:43:42;11.52;;;1.50;;
80536;SDS011;69867;47.074;15.404;2023-09-19T05:46:07;2.90;;;0.93;;
80536;SDS011;69867;47.074;15.404;2023-09-19T05:48:33;3.67;;;1.05;;
80536;SDS011;69867;47.074;15.404;2023-09-19T05:50:58;2.13;;;0.80;;
80536;SDS011;69867;47.074;15.404;2023-09-19T05:53:24;1.98;;;0.70;;
80536;SDS011;69867;47.074;15.404;2023-09-19T05:55:49;7.30;;;1.25;;
80536;SDS011;69867;47.074;15.404;2023-09-19T05:58:14;3.28;;;0.90;;
80536;SDS011;69867;47.074;15.404;2023-09-19T06:00:40;3.17;;;1.10;;
80536;SDS011;69867;47.074;15.404;2023-09-19T06:03:05;2.92;;;1.00;;
80536;SDS011;69867;47.074;15.404;2023-09-19T06:05:30;3.53;;;1.25;;
80536;SDS011;69867;47.074;15.404;2023-09-19T06:07:56;2.33;;;1.13;;
80536;SDS011;69867;47.074;15.404;2023-09-19T06:10:21;2.60;;;1.20;;
80536;SDS011;69867;47.074;15.404;2023-09-19T06:12:46;2.70;;;0.80;;
80536;SDS011;69867;47.074;15.404;2023-09-19T06:15:13;4.60;;;1.05;;
80536;SDS011;69867;47.074;15.404;2023-09-19T06:17:39;3.15;;;0.90;;
80536;SDS011;69867;47.074;15.404;2023-09-19T06:20:07;4.20;;;0.95;;
80536;SDS011;69867;47.074;15.404;2023-09-19T06:22:32;3.50;;;1.05;;
80536;SDS011;69867;47.074;15.404;2023-09-19T06:24:58;2.92;;;1.20;;
80536;SDS011;69867;47.074;15.404;2023-09-19T06:27:23;3.33;;;0.73;;
80536;SDS011;69867;47.074;15.404;2023-09-19T06:29:48;3.03;;;0.85;;
80536;SDS011;69867;47.074;15.404;2023-09-19T06:32:14;3.60;;;1.10;;
80536;SDS011;69867;47.074;15.404;2023-09-19T06:34:39;2.67;;;1.05;;
80536;SDS011;69867;47.074;15.404;2023-09-19T06:37:04;2.40;;;0.85;;
80536;SDS011;69867;47.074;15.404;2023-09-19T06:39:30;4.32;;;1.27;;
80536;SDS011;69867;47.074;15.404;2023-09-19T06:41:55;2.03;;;1.00;;
80536;SDS011;69867;47.074;15.404;2023-09-19T06:44:20;4.15;;;0.88;;
80536;SDS011;69867;47.074;15.404;2023-09-19T06:46:46;2.42;;;0.68;;
80536;SDS011;69867;47.074;15.404;2023-09-19T06:49:11;3.03;;;1.00;;
80536;SDS011;69867;47.074;15.404;2023-09-19T06:51:36;4.30;;;1.02;;
80536;SDS011;69867;47.074;15.404;2023-09-19T06:54:02;6.40;;;1.10;;
80536;SDS011;69867;47.074;15.404;2023-09-19T06:56:27;3.58;;;1.10;;
80536;SDS011;69867;47.074;15.404;2023-09-19T06:58:52;2.95;;;1.02;;
80536;SDS011;69867;47.074;15.404;2023-09-19T07:01:18;3.13;;;1.20;;
80536;SDS011;69867;47.074;15.404;2023-09-19T07:03:43;2.67;;;1.10;;
80536;SDS011;69867;47.074;15.404;2023-09-19T07:06:08;3.42;;;1.23;;
80536;SDS011;69867;47.074;15.404;2023-09-19T07:08:33;2.15;;;0.60;;
80536;SDS011;69867;47.074;15.404;2023-09-19T07:10:59;3.78;;;1.20;;
80536;SDS011;69867;47.074;15.404;2023-09-19T07:13:24;2.40;;;0.77;;
80536;SDS011;69867;47.074;15.404;2023-09-19T07:15:49;2.75;;;1.00;;
80536;SDS011;69867;47.074;15.404;2023-09-19T07:18:15;2.63;;;1.30;;
80536;SDS011;69867;47.074;15.404;2023-09-19T07:20:45;2.63;;;1.10;;
80536;SDS011;69867;47.074;15.404;2023-09-19T07:23:13;2.55;;;1.05;;
80536;SDS011;69867;47.074;15.404;2023-09-19T07:25:38;3.80;;;1.48;;
80536;SDS011;69867;47.074;15.404;2023-09-19T07:28:04;2.92;;;1.25;;
80536;SDS011;69867;47.074;15.404;2023-09-19T07:30:29;3.25;;;1.20;;
80536;SDS011;69867;47.074;15.404;2023-09-19T07:32:55;3.13;;;1.27;;
80536;SDS011;69867;47.074;15.404;2023-09-19T07:35:20;3.33;;;1.10;;
80536;SDS011;69867;47.074;15.404;2023-09-19T07:37:46;2.70;;;1.20;;
80536;SDS011;69867;47.074;15.404;2023-09-19T07:40:11;2.40;;;1.10;;
80536;SDS011;69867;47.074;15.404;2023-09-19T07:42:37;3.22;;;1.50;;
80536;SDS011;69867;47.074;15.404;2023-09-19T07:45:02;4.47;;;1.35;;
80536;SDS011;69867;47.074;15.404;2023-09-19T07:47:28;2.83;;;1.17;;
80536;SDS011;69867;47.074;15.404;2023-09-19T07:49:53;3.90;;;1.50;;
80536;SDS011;69867;47.074;15.404;2023-09-19T07:52:19;3.53;;;1.42;;
80536;SDS011;69867;47.074;15.404;2023-09-19T07:54:44;2.85;;;1.15;;
80536;SDS011;69867;47.074;15.404;2023-09-19T07:57:10;4.50;;;1.52;;
80536;SDS011;69867;47.074;15.404;2023-09-19T07:59:36;4.57;;;1.30;;
80536;SDS011;69867;47.074;15.404;2023-09-19T08:02:02;4.10;;;1.20;;
80536;SDS011;69867;47.074;15.404;2023-09-19T08:04:27;3.53;;;1.20;;
80536;SDS011;69867;47.074;15.404;2023-09-19T08:06:52;5.18;;;1.50;;
80536;SDS011;69867;47.074;15.404;2023-09-19T08:09:18;4.63;;;1.27;;
80536;SDS011;69867;47.074;15.404;2023-09-19T08:11:43;7.30;;;2.30;;
80536;SDS011;69867;47.074;15.404;2023-09-19T08:14:08;3.63;;;1.30;;
80536;SDS011;69867;47.074;15.404;2023-09-19T08:16:33;4.25;;;1.58;;
80536;SDS011;69867;47.074;15.404;2023-09-19T08:18:59;2.88;;;1.33;;
80536;SDS011;69867;47.074;15.404;2023-09-19T08:21:24;2.85;;;1.25;;
80536;SDS011;69867;47.074;15.404;2023-09-19T08:23:50;4.10;;;1.35;;
80536;SDS011;69867;47.074;15.404;2023-09-19T08:26:15;3.85;;;2.47;;
80536;SDS011;69867;47.074;15.404;2023-09-19T08:28:40;3.60;;;1.63;;
80536;SDS011;69867;47.074;15.404;2023-09-19T08:31:06;2.97;;;1.40;;
80536;SDS011;69867;47.074;15.404;2023-09-19T08:33:33;3.60;;;1.60;;
80536;SDS011;69867;47.074;15.404;2023-09-19T08:35:59;6.18;;;1.98;;
80536;SDS011;69867;47.074;15.404;2023-09-19T08:38:25;4.75;;;1.60;;
80536;SDS011;69867;47.074;15.404;2023-09-19T08:40:50;2.97;;;1.25;;
80536;SDS011;69867;47.074;15.404;2023-09-19T08:43:16;3.67;;;1.60;;
80536;SDS011;69867;47.074;15.404;2023-09-19T08:45:41;4.95;;;1.58;;
80536;SDS011;69867;47.074;15.404;2023-09-19T08:48:11;3.53;;;1.50;;
80536;SDS011;69867;47.074;15.404;2023-09-19T08:50:49;6.43;;;1.40;;
80536;SDS011;69867;47.074;15.404;2023-09-19T08:53:20;4.07;;;1.50;;
80536;SDS011;69867;47.074;15.404;2023-09-19T08:55:51;3.25;;;1.20;;
80536;SDS011;69867;47.074;15.404;2023-09-19T08:58:17;4.28;;;1.33;;
80536;SDS011;69867;47.074;15.404;2023-09-19T09:00:46;2.55;;;1.08;;
80536;SDS011;69867;47.074;15.404;2023-09-19T09:03:13;3.10;;;1.40;;
80536;SDS011;69867;47.074;15.404;2023-09-19T09:05:39;2.92;;;1.02;;
80536;SDS011;69867;47.074;15.404;2023-09-19T09:08:07;2.80;;;1.10;;
80536;SDS011;69867;47.074;15.404;2023-09-19T09:10:33;4.93;;;1.30;;
80536;SDS011;69867;47.074;15.404;2023-09-19T09:12:59;3.03;;;1.48;;
80536;SDS011;69867;47.074;15.404;2023-09-19T09:15:25;3.22;;;1.50;;
80536;SDS011;69867;47.074;15.404;2023-09-19T09:17:51;2.95;;;1.48;;
80536;SDS011;69867;47.074;15.404;2023-09-19T09:20:17;2.47;;;0.98;;
80536;SDS011;69867;47.074;15.404;2023-09-19T09:22:55;4.20;;;1.55;;
80536;SDS011;69867;47.074;15.404;2023-09-19T09:25:22;4.57;;;1.40;;
80536;SDS011;69867;47.074;15.404;2023-09-19T09:27:57;2.95;;;1.55;;
80536;SDS011;69867;47.074;15.404;2023-09-19T09:30:33;4.18;;;1.42;;
80536;SDS011;69867;47.074;15.404;2023-09-19T09:33:12;3.90;;;1.33;;
80536;SDS011;69867;47.074;15.404;2023-09-19T09:35:58;3.47;;;1.30;;
80536;SDS011;69867;47.074;15.404;2023-09-19T09:38:25;3.50;;;1.30;;
80536;SDS011;69867;47.074;15.404;2023-09-19T09:40:52;3.90;;;1.10;;
80536;SDS011;69867;47.074;15.404;2023-09-19T09:43:28;4.60;;;1.30;;
80536;SDS011;69867;47.074;15.404;2023-09-19T09:46:08;6.80;;;2.85;;
80536;SDS011;69867;47.074;15.404;2023-09-19T09:48:37;6.40;;;3.25;;
80536;SDS011;69867;47.074;15.404;2023-09-19T09:51:03;6.28;;;1.65;;
80536;SDS011;69867;47.074;15.404;2023-09-19T09:53:30;5.85;;;2.22;;
80536;SDS011;69867;47.074;15.404;2023-09-19T09:55:59;2.88;;;1.65;;
80536;SDS011;69867;47.074;15.404;2023-09-19T09:58:34;5.05;;;1.77;;
80536;SDS011;69867;47.074;15.404;2023-09-19T10:01:02;3.15;;;1.88;;
80536;SDS011;69867;47.074;15.404;2023-09-19T10:03:33;3.35;;;1.50;;
80536;SDS011;69867;47.074;15.404;2023-09-19T10:06:00;2.80;;;1.63;;
80536;SDS011;69867;47.074;15.404;2023-09-19T10:08:26;4.13;;;1.52;;
80536;SDS011;69867;47.074;15.404;2023-09-19T10:10:51;5.03;;;1.95;;
80536;SDS011;69867;47.074;15.404;2023-09-19T10:13:16;3.22;;;1.45;;
80536;SDS011;69867;47.074;15.404;2023-09-19T10:15:44;4.80;;;1.77;;
80536;SDS011;69867;47.074;15.404;2023-09-19T10:18:13;4.22;;;2.08;;
80536;SDS011;69867;47.074;15.404;2023-09-19T10:20:39;4.60;;;1.70;;
80536;SDS011;69867;47.074;15.404;2023-09-19T10:23:06;7.53;;;3.75;;
80536;SDS011;69867;47.074;15.404;2023-09-19T10:25:33;5.47;;;2.90;;
80536;SDS011;69867;47.074;15.404;2023-09-19T10:28:01;5.53;;;2.20;;
80536;SDS011;69867;47.074;15.404;2023-09-19T10:30:27;3.75;;;2.05;;
80536;SDS011;69867;47.074;15.404;2023-09-19T10:32:57;5.47;;;1.98;;
80536;SDS011;69867;47.074;15.404;2023-09-19T10:35:25;6.63;;;2.35;;
80536;SDS011;69867;47.074;15.404;2023-09-19T10:37:51;4.68;;;2.28;;
80536;SDS011;69867;47.074;15.404;2023-09-19T10:40:18;6.57;;;2.80;;
80536;SDS011;69867;47.074;15.404;2023-09-19T10:42:45;7.72;;;2.55;;
80536;SDS011;69867;47.074;15.404;2023-09-19T10:45:13;4.97;;;3.10;;
80536;SDS011;69867;47.074;15.404;2023-09-19T10:47:41;3.88;;;2.10;;
80536;SDS011;69867;47.074;15.404;2023-09-19T10:50:07;3.40;;;1.70;;
80536;SDS011;69867;47.074;15.404;2023-09-19T10:52:33;4.75;;;1.67;;
80536;SDS011;69867;47.074;15.404;2023-09-19T10:54:58;3.60;;;1.73;;
80536;SDS011;69867;47.074;15.404;2023-09-19T10:57:25;3.05;;;1.50;;
80536;SDS011;69867;47.074;15.404;2023-09-19T11:00:06;3.65;;;1.60;;
80536;SDS011;69867;47.074;15.404;2023-09-19T11:02:32;5.13;;;1.30;;
80536;SDS011;69867;47.074;15.404;2023-09-19T11:05:10;3.03;;;1.15;;
80536;SDS011;69867;47.074;15.404;2023-09-19T11:13:24;2.25;;;1.00;;
80536;SDS011;69867;47.074;15.404;2023-09-19T11:26:43;3.83;;;1.20;;
80536;SDS011;69867;47.074;15.404;2023-09-19T11:29:28;3.67;;;0.93;;
80536;SDS011;69867;47.074;15.404;2023-09-19T11:31:55;3.88;;;0.98;;
80536;SDS011;69867;47.074;15.404;2023-09-19T11:37:01;2.90;;;1.00;;
80536;SDS011;69867;47.074;15.404;2023-09-19T11:39:27;4.00;;;0.93;;
80536;SDS011;69867;47.074;15.404;2023-09-19T11:41:52;3.33;;;1.27;;
80536;SDS011;69867;47.074;15.404;2023-09-19T11:49:19;3.47;;;1.00;;
80536;SDS011;69867;47.074;15.404;2023-09-19T11:51:50;2.88;;;1.10;;
80536;SDS011;69867;47.074;15.404;2023-09-19T11:54:16;2.30;;;0.90;;
80536;SDS011;69867;47.074;15.404;2023-09-19T11:56:41;5.43;;;1.45;;
80536;SDS011;69867;47.074;15.404;2023-09-19T11:59:08;3.55;;;0.90;;
80536;SDS011;69867;47.074;15.404;2023-09-19T12:01:34;3.38;;;1.20;;
80536;SDS011;69867;47.074;15.404;2023-09-19T12:04:00;6.75;;;1.67;;
80536;SDS011;69867;47.074;15.404;2023-09-19T12:06:26;4.10;;;0.88;;
80536;SDS011;69867;47.074;15.404;2023-09-19T12:08:53;3.20;;;1.17;;
80536;SDS011;69867;47.074;15.404;2023-09-19T12:11:19;2.50;;;1.00;;
80536;SDS011;69867;47.074;15.404;2023-09-19T12:13:47;4.50;;;1.13;;
80536;SDS011;69867;47.074;15.404;2023-09-19T12:16:16;2.58;;;0.77;;
80536;SDS011;69867;47.074;15.404;2023-09-19T12:18:43;4.90;;;1.25;;
80536;SDS011;69867;47.074;15.404;2023-09-19T12:21:21;2.60;;;1.10;;
80536;SDS011;69867;47.074;15.404;2023-09-19T12:24:03;2.55;;;0.73;;
80536;SDS011;69867;47.074;15.404;2023-09-19T12:26:30;2.85;;;1.10;;
80536;SDS011;69867;47.074;15.404;2023-09-19T12:29:02;3.63;;;1.10;;
80536;SDS011;69867;47.074;15.404;2023-09-19T12:31:28;6.65;;;1.05;;
80536;SDS011;69867;47.074;15.404;2023-09-19T12:33:54;2.88;;;1.30;;
80536;SDS011;69867;47.074;15.404;2023-09-19T12:36:20;3.33;;;1.00;;
80536;SDS011;69867;47.074;15.404;2023-09-19T12:38:48;3.50;;;1.30;;
80536;SDS011;69867;47.074;15.404;2023-09-19T12:41:13;2.30;;;0.93;;
80536;SDS011;69867;47.074;15.404;2023-09-19T12:43:39;2.50;;;0.90;;
80536;SDS011;69867;47.074;15.404;2023-09-19T12:46:04;2.88;;;1.23;;
80536;SDS011;69867;47.074;15.404;2023-09-19T12:48:30;2.55;;;1.10;;
80536;SDS011;69867;47.074;15.404;2023-09-19T12:50:59;3.85;;;1.40;;
80536;SDS011;69867;47.074;15.404;2023-09-19T12:53:25;2.50;;;1.00;;
80536;SDS011;69867;47.074;15.404;2023-09-19T12:55:57;3.72;;;0.98;;
80536;SDS011;69867;47.074;15.404;2023-09-19T12:58:23;2.80;;;1.10;;
80536;SDS011;69867;47.074;15.404;2023-09-19T13:00:49;3.75;;;0.88;;
80536;SDS011;69867;47.074;15.404;2023-09-19T13:03:16;6.97;;;1.27;;
80536;SDS011;69867;47.074;15.404;2023-09-19T13:08:24;4.20;;;1.15;;
80536;SDS011;69867;47.074;15.404;2023-09-19T13:11:04;2.83;;;1.00;;
80536;SDS011;69867;47.074;15.404;2023-09-19T13:13:40;3.22;;;1.08;;
80536;SDS011;69867;47.074;15.404;2023-09-19T13:16:07;2.92;;;1.10;;
80536;SDS011;69867;47.074;15.404;2023-09-19T13:18:41;2.97;;;0.98;;
80536;SDS011;69867;47.074;15.404;2023-09-19T13:21:10;3.55;;;1.00;;
80536;SDS011;69867;47.074;15.404;2023-09-19T13:23:36;2.65;;;1.17;;
80536;SDS011;69867;47.074;15.404;2023-09-19T13:26:01;3.05;;;1.42;;
80536;SDS011;69867;47.074;15.404;2023-09-19T13:28:26;3.97;;;1.30;;
80536;SDS011;69867;47.074;15.404;2023-09-19T13:30:52;3.13;;;1.23;;
80536;SDS011;69867;47.074;15.404;2023-09-19T13:33:17;4.18;;;1.23;;
80536;SDS011;69867;47.074;15.404;2023-09-19T13:35:42;3.85;;;1.20;;
80536;SDS011;69867;47.074;15.404;2023-09-19T13:38:08;2.63;;;1.00;;
80536;SDS011;69867;47.074;15.404;2023-09-19T13:40:33;3.33;;;1.25;;
80536;SDS011;69867;47.074;15.404;2023-09-19T13:42:59;4.47;;;1.20;;
80536;SDS011;69867;47.074;15.404;2023-09-19T13:45:24;4.28;;;0.95;;
80536;SDS011;69867;47.074;15.404;2023-09-19T13:47:49;3.10;;;1.02;;
80536;SDS011;69867;47.074;15.404;2023-09-19T13:50:15;2.15;;;0.80;;
80536;SDS011;69867;47.074;15.404;2023-09-19T13:52:40;2.90;;;1.10;;
80536;SDS011;69867;47.074;15.404;2023-09-19T13:55:05;2.78;;;1.20;;
80536;SDS011;69867;47.074;15.404;2023-09-19T13:57:31;2.92;;;0.98;;
80536;SDS011;69867;47.074;15.404;2023-09-19T13:59:56;3.47;;;1.15;;
80536;SDS011;69867;47.074;15.404;2023-09-19T14:02:22;3.65;;;1.13;;
80536;SDS011;69867;47.074;15.404;2023-09-19T14:04:48;4.65;;;1.00;;
80536;SDS011;69867;47.074;15.404;2023-09-19T14:07:13;3.50;;;1.10;;
80536;SDS011;69867;47.074;15.404;2023-09-19T14:09:39;3.17;;;1.00;;
80536;SDS011;69867;47.074;15.404;2023-09-19T14:12:04;4.40;;;1.52;;
80536;SDS011;69867;47.074;15.404;2023-09-19T14:14:30;4.05;;;1.30;;
80536;SDS011;69867;47.074;15.404;2023-09-19T14:16:55;9.10;;;1.10;;
80536;SDS011;69867;47.074;15.404;2023-09-19T14:19:20;3.15;;;1.30;;
80536;SDS011;69867;47.074;15.404;2023-09-19T14:21:46;2.58;;;0.80;;
80536;SDS011;69867;47.074;15.404;2023-09-19T14:24:16;2.60;;;1.17;;
80536;SDS011;69867;47.074;15.404;2023-09-19T14:29:07;4.03;;;1.03;;
80536;SDS011;69867;47.074;15.404;2023-09-19T14:31:32;3.17;;;1.15;;
80536;SDS011;69867;47.074;15.404;2023-09-19T14:33:58;2.65;;;1.08;;
80536;SDS011;69867;47.074;15.404;2023-09-19T14:36:23;3.65;;;1.00;;
80536;SDS011;69867;47.074;15.404;2023-09-19T14:38:51;3.03;;;1.05;;
80536;SDS011;69867;47.074;15.404;2023-09-19T14:41:17;2.35;;;1.00;;
80536;SDS011;69867;47.074;15.404;2023-09-19T14:43:43;2.60;;;0.90;;
80536;SDS011;69867;47.074;15.404;2023-09-19T14:46:08;3.33;;;1.27;;
80536;SDS011;69867;47.074;15.404;2023-09-19T14:48:33;2.95;;;1.25;;
80536;SDS011;69867;47.074;15.404;2023-09-19T14:51:06;3.50;;;1.77;;
80536;SDS011;69867;47.074;15.404;2023-09-19T14:53:32;3.10;;;1.00;;
80536;SDS011;69867;47.074;15.404;2023-09-19T14:55:59;3.78;;;1.70;;
80536;SDS011;69867;47.074;15.404;2023-09-19T14:58:30;2.75;;;1.27;;
80536;SDS011;69867;47.074;15.404;2023-09-19T15:01:03;6.50;;;1.83;;
80536;SDS011;69867;47.074;15.404;2023-09-19T15:03:33;3.28;;;1.10;;
80536;SDS011;69867;47.074;15.404;2023-09-19T15:05:59;3.42;;;1.65;;
80536;SDS011;69867;47.074;15.404;2023-09-19T15:08:26;2.95;;;1.45;;
80536;SDS011;69867;47.074;15.404;2023-09-19T15:10:51;3.92;;;1.40;;
80536;SDS011;69867;47.074;15.404;2023-09-19T15:13:17;3.72;;;1.35;;
80536;SDS011;69867;47.074;15.404;2023-09-19T15:15:42;4.55;;;1.50;;
80536;SDS011;69867;47.074;15.404;2023-09-19T15:18:07;2.72;;;1.13;;
80536;SDS011;69867;47.074;15.404;2023-09-19T15:20:32;3.72;;;1.38;;